Terminal Aerodrome Forecast
Issued by NWS

Home | Current Version | Previous Version | Text Only | Print | Product List | Glossary On
Versions: 1 2 3 4 5 6 7 8 9 10 11 12 13 14 15 16
000
FTUS45 KSLC 052354 CCA
TAFBCE
TAF COR
KBCE 052354Z 0600/0624 30015KT P6SM FEW100
     FM060200 29008KT P6SM SCT100
     FM061800 22015G25KT P6SM BKN100=

USA.gov is the U.S. government's official web portal to all federal, state and local government web resources and services.